sensor_id;sensor_type;location;lat;lon;timestamp;P1;durP1;ratioP1;P2;durP2;ratioP2
20441;SDS011;10380;52.102;20.614;2023-08-31T00:02:47;8.00;;;3.78;;
20441;SDS011;10380;52.102;20.614;2023-08-31T00:12:02;7.20;;;4.00;;
20441;SDS011;10380;52.102;20.614;2023-08-31T00:14:30;6.38;;;3.75;;
20441;SDS011;10380;52.102;20.614;2023-08-31T00:16:59;7.30;;;4.32;;
20441;SDS011;10380;52.102;20.614;2023-08-31T00:19:27;6.50;;;4.80;;
20441;SDS011;10380;52.102;20.614;2023-08-31T00:21:54;4.95;;;4.03;;
20441;SDS011;10380;52.102;20.614;2023-08-31T00:24:21;5.78;;;4.80;;
20441;SDS011;10380;52.102;20.614;2023-08-31T00:26:54;5.10;;;4.38;;
20441;SDS011;10380;52.102;20.614;2023-08-31T00:29:21;7.40;;;4.93;;
20441;SDS011;10380;52.102;20.614;2023-08-31T00:31:49;5.78;;;4.47;;
20441;SDS011;10380;52.102;20.614;2023-08-31T00:34:17;5.28;;;4.78;;
20441;SDS011;10380;52.102;20.614;2023-08-31T00:36:45;7.40;;;4.63;;
20441;SDS011;10380;52.102;20.614;2023-08-31T00:39:12;5.28;;;4.30;;
20441;SDS011;10380;52.102;20.614;2023-08-31T00:41:39;6.30;;;4.82;;
20441;SDS011;10380;52.102;20.614;2023-08-31T00:44:07;6.82;;;4.75;;
20441;SDS011;10380;52.102;20.614;2023-08-31T00:46:34;6.35;;;5.43;;
20441;SDS011;10380;52.102;20.614;2023-08-31T00:49:03;4.88;;;4.38;;
20441;SDS011;10380;52.102;20.614;2023-08-31T00:51:30;4.65;;;4.22;;
20441;SDS011;10380;52.102;20.614;2023-08-31T00:53:59;5.45;;;4.95;;
20441;SDS011;10380;52.102;20.614;2023-08-31T00:56:27;8.20;;;6.40;;
20441;SDS011;10380;52.102;20.614;2023-08-31T00:58:55;5.68;;;5.18;;
20441;SDS011;10380;52.102;20.614;2023-08-31T01:01:25;7.57;;;5.63;;
20441;SDS011;10380;52.102;20.614;2023-08-31T01:04:16;7.10;;;4.95;;
20441;SDS011;10380;52.102;20.614;2023-08-31T01:07:00;5.55;;;4.97;;
20441;SDS011;10380;52.102;20.614;2023-08-31T01:12:22;6.63;;;4.50;;
20441;SDS011;10380;52.102;20.614;2023-08-31T01:15:03;8.68;;;5.47;;
20441;SDS011;10380;52.102;20.614;2023-08-31T01:17:32;8.38;;;5.63;;
20441;SDS011;10380;52.102;20.614;2023-08-31T01:20:04;7.80;;;5.88;;
20441;SDS011;10380;52.102;20.614;2023-08-31T01:22:38;6.15;;;5.55;;
20441;SDS011;10380;52.102;20.614;2023-08-31T01:25:09;7.53;;;5.72;;
20441;SDS011;10380;52.102;20.614;2023-08-31T01:27:38;6.28;;;5.55;;
20441;SDS011;10380;52.102;20.614;2023-08-31T01:30:09;9.43;;;6.03;;
20441;SDS011;10380;52.102;20.614;2023-08-31T01:32:36;6.85;;;5.78;;
20441;SDS011;10380;52.102;20.614;2023-08-31T01:35:04;7.38;;;6.50;;
20441;SDS011;10380;52.102;20.614;2023-08-31T01:37:50;8.82;;;5.43;;
20441;SDS011;10380;52.102;20.614;2023-08-31T01:43:21;6.65;;;5.47;;
20441;SDS011;10380;52.102;20.614;2023-08-31T01:45:50;7.07;;;5.63;;
20441;SDS011;10380;52.102;20.614;2023-08-31T01:48:25;7.32;;;5.40;;
20441;SDS011;10380;52.102;20.614;2023-08-31T01:50:53;4.43;;;4.03;;
20441;SDS011;10380;52.102;20.614;2023-08-31T01:53:20;5.93;;;5.28;;
20441;SDS011;10380;52.102;20.614;2023-08-31T01:55:51;5.90;;;5.10;;
20441;SDS011;10380;52.102;20.614;2023-08-31T01:58:24;6.97;;;4.68;;
20441;SDS011;10380;52.102;20.614;2023-08-31T02:00:52;5.97;;;4.53;;
20441;SDS011;10380;52.102;20.614;2023-08-31T02:03:19;5.88;;;4.80;;
20441;SDS011;10380;52.102;20.614;2023-08-31T02:05:47;5.60;;;4.28;;
20441;SDS011;10380;52.102;20.614;2023-08-31T02:08:14;5.95;;;4.80;;
20441;SDS011;10380;52.102;20.614;2023-08-31T02:10:46;5.72;;;4.55;;
20441;SDS011;10380;52.102;20.614;2023-08-31T02:13:14;4.95;;;4.13;;
20441;SDS011;10380;52.102;20.614;2023-08-31T02:15:45;4.50;;;4.10;;
20441;SDS011;10380;52.102;20.614;2023-08-31T02:18:12;5.25;;;4.07;;
20441;SDS011;10380;52.102;20.614;2023-08-31T02:20:40;4.88;;;3.83;;
20441;SDS011;10380;52.102;20.614;2023-08-31T02:23:08;4.55;;;3.90;;
20441;SDS011;10380;52.102;20.614;2023-08-31T02:25:37;5.15;;;3.88;;
20441;SDS011;10380;52.102;20.614;2023-08-31T02:28:04;4.72;;;4.10;;
20441;SDS011;10380;52.102;20.614;2023-08-31T02:30:31;7.47;;;3.83;;
20441;SDS011;10380;52.102;20.614;2023-08-31T02:32:59;3.92;;;3.53;;
20441;SDS011;10380;52.102;20.614;2023-08-31T02:35:26;5.07;;;3.53;;
20441;SDS011;10380;52.102;20.614;2023-08-31T02:40:25;4.65;;;3.42;;
20441;SDS011;10380;52.102;20.614;2023-08-31T02:42:52;5.15;;;3.45;;
20441;SDS011;10380;52.102;20.614;2023-08-31T02:45:20;4.45;;;3.28;;
20441;SDS011;10380;52.102;20.614;2023-08-31T02:47:48;3.22;;;2.92;;
20441;SDS011;10380;52.102;20.614;2023-08-31T02:50:17;3.40;;;3.10;;
20441;SDS011;10380;52.102;20.614;2023-08-31T02:56:24;4.68;;;3.40;;
20441;SDS011;10380;52.102;20.614;2023-08-31T02:59:22;5.47;;;3.38;;
20441;SDS011;10380;52.102;20.614;2023-08-31T03:01:51;4.28;;;3.03;;
20441;SDS011;10380;52.102;20.614;2023-08-31T03:04:19;3.22;;;2.65;;
20441;SDS011;10380;52.102;20.614;2023-08-31T03:06:46;4.35;;;2.67;;
20441;SDS011;10380;52.102;20.614;2023-08-31T03:09:14;2.83;;;2.63;;
20441;SDS011;10380;52.102;20.614;2023-08-31T03:11:43;3.22;;;2.92;;
20441;SDS011;10380;52.102;20.614;2023-08-31T03:14:10;3.25;;;2.95;;
20441;SDS011;10380;52.102;20.614;2023-08-31T03:16:37;2.95;;;2.35;;
20441;SDS011;10380;52.102;20.614;2023-08-31T03:19:05;5.45;;;3.30;;
20441;SDS011;10380;52.102;20.614;2023-08-31T03:24:04;3.35;;;3.05;;
20441;SDS011;10380;52.102;20.614;2023-08-31T03:26:32;3.38;;;2.75;;
20441;SDS011;10380;52.102;20.614;2023-08-31T03:29:02;5.30;;;3.17;;
20441;SDS011;10380;52.102;20.614;2023-08-31T03:31:30;3.40;;;2.70;;
20441;SDS011;10380;52.102;20.614;2023-08-31T03:34:01;3.65;;;2.67;;
20441;SDS011;10380;52.102;20.614;2023-08-31T03:36:30;2.97;;;2.47;;
20441;SDS011;10380;52.102;20.614;2023-08-31T03:38:57;4.65;;;2.20;;
20441;SDS011;10380;52.102;20.614;2023-08-31T03:41:30;3.65;;;2.78;;
20441;SDS011;10380;52.102;20.614;2023-08-31T03:43:57;4.22;;;2.50;;
20441;SDS011;10380;52.102;20.614;2023-08-31T03:46:25;2.85;;;2.42;;
20441;SDS011;10380;52.102;20.614;2023-08-31T03:48:53;2.60;;;2.40;;
20441;SDS011;10380;52.102;20.614;2023-08-31T03:51:21;5.18;;;3.28;;
20441;SDS011;10380;52.102;20.614;2023-08-31T03:53:48;3.63;;;2.78;;
20441;SDS011;10380;52.102;20.614;2023-08-31T03:56:17;4.65;;;2.85;;
20441;SDS011;10380;52.102;20.614;2023-08-31T03:58:44;6.63;;;2.33;;
20441;SDS011;10380;52.102;20.614;2023-08-31T04:01:12;5.47;;;2.70;;
20441;SDS011;10380;52.102;20.614;2023-08-31T04:03:42;3.75;;;2.92;;
20441;SDS011;10380;52.102;20.614;2023-08-31T04:06:09;4.32;;;2.45;;
20441;SDS011;10380;52.102;20.614;2023-08-31T04:08:37;5.68;;;3.13;;
20441;SDS011;10380;52.102;20.614;2023-08-31T04:11:04;3.35;;;3.05;;
20441;SDS011;10380;52.102;20.614;2023-08-31T04:13:31;6.70;;;3.13;;
20441;SDS011;10380;52.102;20.614;2023-08-31T04:16:01;4.15;;;3.28;;
20441;SDS011;10380;52.102;20.614;2023-08-31T04:18:32;5.30;;;3.22;;
20441;SDS011;10380;52.102;20.614;2023-08-31T04:21:00;3.85;;;3.13;;
20441;SDS011;10380;52.102;20.614;2023-08-31T04:23:30;4.82;;;3.50;;
20441;SDS011;10380;52.102;20.614;2023-08-31T04:25:57;6.70;;;4.05;;
20441;SDS011;10380;52.102;20.614;2023-08-31T04:28:25;4.13;;;3.60;;
20441;SDS011;10380;52.102;20.614;2023-08-31T04:30:53;12.05;;;5.53;;
20441;SDS011;10380;52.102;20.614;2023-08-31T04:33:20;4.93;;;3.97;;
20441;SDS011;10380;52.102;20.614;2023-08-31T04:35:47;6.35;;;3.58;;
20441;SDS011;10380;52.102;20.614;2023-08-31T04:38:16;6.68;;;3.65;;
20441;SDS011;10380;52.102;20.614;2023-08-31T04:40:45;5.05;;;3.78;;
20441;SDS011;10380;52.102;20.614;2023-08-31T04:43:12;5.57;;;4.13;;
20441;SDS011;10380;52.102;20.614;2023-08-31T04:45:42;8.27;;;4.28;;
20441;SDS011;10380;52.102;20.614;2023-08-31T04:48:09;5.38;;;3.83;;
20441;SDS011;10380;52.102;20.614;2023-08-31T04:50:37;5.55;;;4.32;;
20441;SDS011;10380;52.102;20.614;2023-08-31T04:53:04;6.38;;;5.13;;
20441;SDS011;10380;52.102;20.614;2023-08-31T04:55:32;5.63;;;4.35;;
20441;SDS011;10380;52.102;20.614;2023-08-31T04:57:59;8.88;;;4.30;;
20441;SDS011;10380;52.102;20.614;2023-08-31T05:00:27;10.88;;;8.57;;
20441;SDS011;10380;52.102;20.614;2023-08-31T05:02:54;7.13;;;5.78;;
20441;SDS011;10380;52.102;20.614;2023-08-31T05:05:21;8.18;;;5.45;;
20441;SDS011;10380;52.102;20.614;2023-08-31T05:07:49;5.07;;;4.57;;
20441;SDS011;10380;52.102;20.614;2023-08-31T05:10:16;5.20;;;4.70;;
20441;SDS011;10380;52.102;20.614;2023-08-31T05:12:43;6.82;;;4.50;;
20441;SDS011;10380;52.102;20.614;2023-08-31T05:15:11;7.43;;;4.05;;
20441;SDS011;10380;52.102;20.614;2023-08-31T05:17:38;4.72;;;3.80;;
20441;SDS011;10380;52.102;20.614;2023-08-31T05:20:06;6.90;;;4.57;;
20441;SDS011;10380;52.102;20.614;2023-08-31T05:22:35;5.32;;;4.25;;
20441;SDS011;10380;52.102;20.614;2023-08-31T05:25:02;5.88;;;5.28;;
20441;SDS011;10380;52.102;20.614;2023-08-31T05:27:31;5.25;;;4.75;;
20441;SDS011;10380;52.102;20.614;2023-08-31T05:29:58;6.15;;;4.88;;
20441;SDS011;10380;52.102;20.614;2023-08-31T05:32:27;7.35;;;5.07;;
20441;SDS011;10380;52.102;20.614;2023-08-31T05:34:55;7.28;;;4.97;;
20441;SDS011;10380;52.102;20.614;2023-08-31T05:37:22;5.20;;;4.70;;
20441;SDS011;10380;52.102;20.614;2023-08-31T05:39:50;5.10;;;4.32;;
20441;SDS011;10380;52.102;20.614;2023-08-31T05:42:18;5.85;;;4.55;;
20441;SDS011;10380;52.102;20.614;2023-08-31T05:44:45;6.28;;;5.25;;
20441;SDS011;10380;52.102;20.614;2023-08-31T05:47:12;5.45;;;4.70;;
20441;SDS011;10380;52.102;20.614;2023-08-31T05:49:40;5.82;;;5.05;;
20441;SDS011;10380;52.102;20.614;2023-08-31T05:52:07;5.35;;;4.68;;
20441;SDS011;10380;52.102;20.614;2023-08-31T05:54:35;5.32;;;4.72;;
20441;SDS011;10380;52.102;20.614;2023-08-31T05:57:02;6.57;;;4.80;;
20441;SDS011;10380;52.102;20.614;2023-08-31T05:59:30;7.47;;;5.20;;
20441;SDS011;10380;52.102;20.614;2023-08-31T06:01:57;5.13;;;4.63;;
20441;SDS011;10380;52.102;20.614;2023-08-31T06:04:25;6.55;;;5.18;;
20441;SDS011;10380;52.102;20.614;2023-08-31T06:06:52;7.30;;;4.68;;
20441;SDS011;10380;52.102;20.614;2023-08-31T06:09:20;6.20;;;5.13;;
20441;SDS011;10380;52.102;20.614;2023-08-31T06:11:48;6.90;;;5.70;;
20441;SDS011;10380;52.102;20.614;2023-08-31T06:14:15;7.70;;;5.18;;
20441;SDS011;10380;52.102;20.614;2023-08-31T06:16:42;6.03;;;5.43;;
20441;SDS011;10380;52.102;20.614;2023-08-31T06:19:10;6.38;;;4.70;;
20441;SDS011;10380;52.102;20.614;2023-08-31T06:21:38;8.05;;;5.80;;
20441;SDS011;10380;52.102;20.614;2023-08-31T06:24:05;8.82;;;5.75;;
20441;SDS011;10380;52.102;20.614;2023-08-31T06:26:36;7.15;;;5.60;;
20441;SDS011;10380;52.102;20.614;2023-08-31T06:29:03;6.63;;;5.13;;
20441;SDS011;10380;52.102;20.614;2023-08-31T06:31:30;6.13;;;5.05;;
20441;SDS011;10380;52.102;20.614;2023-08-31T06:33:57;7.07;;;4.65;;
20441;SDS011;10380;52.102;20.614;2023-08-31T06:36:25;7.25;;;5.32;;
20441;SDS011;10380;52.102;20.614;2023-08-31T06:38:52;5.93;;;5.25;;
20441;SDS011;10380;52.102;20.614;2023-08-31T06:41:19;6.68;;;5.10;;
20441;SDS011;10380;52.102;20.614;2023-08-31T06:43:47;11.77;;;5.75;;
20441;SDS011;10380;52.102;20.614;2023-08-31T06:46:15;5.70;;;4.90;;
20441;SDS011;10380;52.102;20.614;2023-08-31T06:48:50;5.60;;;4.55;;
20441;SDS011;10380;52.102;20.614;2023-08-31T06:51:19;6.68;;;4.13;;
20441;SDS011;10380;52.102;20.614;2023-08-31T06:53:51;4.93;;;3.90;;
20441;SDS011;10380;52.102;20.614;2023-08-31T06:56:18;4.72;;;4.13;;
20441;SDS011;10380;52.102;20.614;2023-08-31T06:58:45;4.47;;;3.80;;
20441;SDS011;10380;52.102;20.614;2023-08-31T07:01:12;4.88;;;3.47;;
20441;SDS011;10380;52.102;20.614;2023-08-31T07:03:40;4.05;;;3.63;;
20441;SDS011;10380;52.102;20.614;2023-08-31T07:06:08;3.65;;;3.17;;
20441;SDS011;10380;52.102;20.614;2023-08-31T07:08:36;3.92;;;3.35;;
20441;SDS011;10380;52.102;20.614;2023-08-31T07:11:03;4.53;;;3.33;;
20441;SDS011;10380;52.102;20.614;2023-08-31T07:13:31;4.60;;;3.33;;
20441;SDS011;10380;52.102;20.614;2023-08-31T07:15:58;5.03;;;2.83;;
20441;SDS011;10380;52.102;20.614;2023-08-31T07:18:26;6.47;;;2.92;;
20441;SDS011;10380;52.102;20.614;2023-08-31T07:20:53;3.45;;;2.70;;
20441;SDS011;10380;52.102;20.614;2023-08-31T07:23:21;3.42;;;2.92;;
20441;SDS011;10380;52.102;20.614;2023-08-31T07:25:48;2.83;;;2.38;;
20441;SDS011;10380;52.102;20.614;2023-08-31T07:28:15;3.75;;;2.60;;
20441;SDS011;10380;52.102;20.614;2023-08-31T07:30:44;6.35;;;2.28;;
20441;SDS011;10380;52.102;20.614;2023-08-31T07:33:11;4.13;;;2.38;;
20441;SDS011;10380;52.102;20.614;2023-08-31T07:35:56;4.55;;;2.33;;
20441;SDS011;10380;52.102;20.614;2023-08-31T07:38:25;3.63;;;2.35;;
20441;SDS011;10380;52.102;20.614;2023-08-31T07:40:53;2.75;;;2.10;;
20441;SDS011;10380;52.102;20.614;2023-08-31T07:43:20;2.25;;;2.03;;
20441;SDS011;10380;52.102;20.614;2023-08-31T07:45:47;3.28;;;2.40;;
20441;SDS011;10380;52.102;20.614;2023-08-31T07:48:15;2.72;;;1.90;;
20441;SDS011;10380;52.102;20.614;2023-08-31T07:50:43;2.40;;;2.15;;
20441;SDS011;10380;52.102;20.614;2023-08-31T07:53:10;4.32;;;2.42;;
20441;SDS011;10380;52.102;20.614;2023-08-31T07:55:39;6.03;;;2.53;;
20441;SDS011;10380;52.102;20.614;2023-08-31T07:58:06;3.17;;;2.15;;
20441;SDS011;10380;52.102;20.614;2023-08-31T08:00:33;2.55;;;1.83;;
20441;SDS011;10380;52.102;20.614;2023-08-31T08:03:01;2.22;;;1.90;;
20441;SDS011;10380;52.102;20.614;2023-08-31T08:05:28;1.75;;;1.40;;
20441;SDS011;10380;52.102;20.614;2023-08-31T08:07:56;2.40;;;1.83;;
20441;SDS011;10380;52.102;20.614;2023-08-31T08:10:23;2.85;;;1.73;;
20441;SDS011;10380;52.102;20.614;2023-08-31T08:12:51;3.13;;;1.98;;
20441;SDS011;10380;52.102;20.614;2023-08-31T08:15:18;4.53;;;2.28;;
20441;SDS011;10380;52.102;20.614;2023-08-31T08:17:46;4.28;;;1.85;;
20441;SDS011;10380;52.102;20.614;2023-08-31T08:20:14;3.13;;;2.15;;
20441;SDS011;10380;52.102;20.614;2023-08-31T08:22:41;4.97;;;1.98;;
20441;SDS011;10380;52.102;20.614;2023-08-31T08:25:08;4.07;;;1.83;;
20441;SDS011;10380;52.102;20.614;2023-08-31T08:27:36;5.40;;;2.17;;
20441;SDS011;10380;52.102;20.614;2023-08-31T08:30:03;4.60;;;1.70;;
20441;SDS011;10380;52.102;20.614;2023-08-31T08:32:32;2.42;;;1.55;;
20441;SDS011;10380;52.102;20.614;2023-08-31T08:35:01;2.25;;;1.45;;
20441;SDS011;10380;52.102;20.614;2023-08-31T08:37:29;1.98;;;1.42;;
20441;SDS011;10380;52.102;20.614;2023-08-31T08:39:58;3.92;;;1.98;;
20441;SDS011;10380;52.102;20.614;2023-08-31T08:42:26;2.30;;;1.33;;
20441;SDS011;10380;52.102;20.614;2023-08-31T08:44:56;3.92;;;1.35;;
20441;SDS011;10380;52.102;20.614;2023-08-31T08:47:25;5.13;;;2.00;;
20441;SDS011;10380;52.102;20.614;2023-08-31T08:49:53;4.22;;;1.60;;
20441;SDS011;10380;52.102;20.614;2023-08-31T08:52:22;2.10;;;1.48;;
20441;SDS011;10380;52.102;20.614;2023-08-31T08:54:49;3.25;;;1.60;;
20441;SDS011;10380;52.102;20.614;2023-08-31T08:57:16;2.90;;;1.92;;
20441;SDS011;10380;52.102;20.614;2023-08-31T08:59:44;2.17;;;1.60;;
20441;SDS011;10380;52.102;20.614;2023-08-31T09:02:11;1.50;;;1.33;;
20441;SDS011;10380;52.102;20.614;2023-08-31T09:04:39;6.50;;;2.03;;
20441;SDS011;10380;52.102;20.614;2023-08-31T09:07:07;1.65;;;1.50;;
20441;SDS011;10380;52.102;20.614;2023-08-31T09:09:47;2.30;;;1.50;;
20441;SDS011;10380;52.102;20.614;2023-08-31T09:12:18;2.80;;;1.80;;
20441;SDS011;10380;52.102;20.614;2023-08-31T09:14:57;2.75;;;2.10;;
20441;SDS011;10380;52.102;20.614;2023-08-31T09:17:39;3.03;;;2.00;;
20441;SDS011;10380;52.102;20.614;2023-08-31T09:20:11;5.50;;;2.40;;
20441;SDS011;10380;52.102;20.614;2023-08-31T09:22:42;2.75;;;1.73;;
20441;SDS011;10380;52.102;20.614;2023-08-31T09:25:11;2.83;;;1.60;;
20441;SDS011;10380;52.102;20.614;2023-08-31T09:27:39;3.58;;;1.95;;
20441;SDS011;10380;52.102;20.614;2023-08-31T09:30:07;2.88;;;1.98;;
20441;SDS011;10380;52.102;20.614;2023-08-31T09:32:35;4.40;;;2.40;;
20441;SDS011;10380;52.102;20.614;2023-08-31T09:35:07;7.95;;;1.80;;
20441;SDS011;10380;52.102;20.614;2023-08-31T09:37:54;4.22;;;2.00;;
20441;SDS011;10380;52.102;20.614;2023-08-31T09:40:25;2.22;;;1.73;;
20441;SDS011;10380;52.102;20.614;2023-08-31T09:42:52;2.80;;;1.83;;
20441;SDS011;10380;52.102;20.614;2023-08-31T09:45:30;3.72;;;1.92;;
20441;SDS011;10380;52.102;20.614;2023-08-31T09:48:12;2.38;;;1.58;;
20441;SDS011;10380;52.102;20.614;2023-08-31T09:50:42;3.33;;;2.17;;
20441;SDS011;10380;52.102;20.614;2023-08-31T09:53:11;2.53;;;1.90;;
20441;SDS011;10380;52.102;20.614;2023-08-31T09:55:39;2.17;;;1.92;;
20441;SDS011;10380;52.102;20.614;2023-08-31T09:58:09;6.32;;;1.80;;
20441;SDS011;10380;52.102;20.614;2023-08-31T10:00:42;2.90;;;2.22;;
20441;SDS011;10380;52.102;20.614;2023-08-31T10:03:12;2.15;;;1.75;;
20441;SDS011;10380;52.102;20.614;2023-08-31T10:05:46;3.08;;;2.10;;
20441;SDS011;10380;52.102;20.614;2023-08-31T10:08:14;2.63;;;1.70;;
20441;SDS011;10380;52.102;20.614;2023-08-31T10:10:42;3.00;;;1.92;;
20441;SDS011;10380;52.102;20.614;2023-08-31T10:13:13;4.22;;;1.70;;
20441;SDS011;10380;52.102;20.614;2023-08-31T10:15:43;2.97;;;1.90;;
20441;SDS011;10380;52.102;20.614;2023-08-31T10:18:11;3.95;;;1.48;;
20441;SDS011;10380;52.102;20.614;2023-08-31T10:20:39;2.58;;;1.98;;
20441;SDS011;10380;52.102;20.614;2023-08-31T10:23:12;2.80;;;1.90;;
20441;SDS011;10380;52.102;20.614;2023-08-31T10:28:24;3.60;;;1.98;;
20441;SDS011;10380;52.102;20.614;2023-08-31T10:31:02;2.78;;;2.50;;
20441;SDS011;10380;52.102;20.614;2023-08-31T10:36:43;2.35;;;2.10;;
20441;SDS011;10380;52.102;20.614;2023-08-31T10:39:17;2.28;;;1.92;;
20441;SDS011;10380;52.102;20.614;2023-08-31T10:41:54;4.13;;;2.20;;
20441;SDS011;10380;52.102;20.614;2023-08-31T10:46:50;3.25;;;2.42;;
20441;SDS011;10380;52.102;20.614;2023-08-31T10:49:18;6.82;;;2.38;;
20441;SDS011;10380;52.102;20.614;2023-08-31T10:51:54;4.10;;;2.05;;
20441;SDS011;10380;52.102;20.614;2023-08-31T10:54:25;2.80;;;2.17;;
20441;SDS011;10380;52.102;20.614;2023-08-31T10:59:40;3.85;;;2.35;;
20441;SDS011;10380;52.102;20.614;2023-08-31T11:05:08;4.35;;;2.30;;
20441;SDS011;10380;52.102;20.614;2023-08-31T11:07:50;7.80;;;2.50;;
20441;SDS011;10380;52.102;20.614;2023-08-31T11:10:24;6.88;;;2.08;;
20441;SDS011;10380;52.102;20.614;2023-08-31T11:12:56;6.65;;;2.58;;
20441;SDS011;10380;52.102;20.614;2023-08-31T11:15:25;7.95;;;2.42;;
20441;SDS011;10380;52.102;20.614;2023-08-31T11:17:56;3.45;;;2.50;;
20441;SDS011;10380;52.102;20.614;2023-08-31T11:20:24;3.30;;;1.95;;
20441;SDS011;10380;52.102;20.614;2023-08-31T11:22:55;4.13;;;2.58;;
20441;SDS011;10380;52.102;20.614;2023-08-31T11:25:23;3.33;;;2.40;;
20441;SDS011;10380;52.102;20.614;2023-08-31T11:27:55;5.05;;;2.72;;
20441;SDS011;10380;52.102;20.614;2023-08-31T11:30:24;6.03;;;2.75;;
20441;SDS011;10380;52.102;20.614;2023-08-31T11:32:53;4.85;;;2.67;;
20441;SDS011;10380;52.102;20.614;2023-08-31T11:35:20;2.75;;;2.30;;
20441;SDS011;10380;52.102;20.614;2023-08-31T11:37:50;11.77;;;3.33;;
20441;SDS011;10380;52.102;20.614;2023-08-31T11:40:18;7.00;;;3.20;;
20441;SDS011;10380;52.102;20.614;2023-08-31T11:42:46;4.70;;;2.38;;
20441;SDS011;10380;52.102;20.614;2023-08-31T11:45:15;7.25;;;2.70;;
20441;SDS011;10380;52.102;20.614;2023-08-31T11:47:43;4.45;;;2.50;;
20441;SDS011;10380;52.102;20.614;2023-08-31T11:50:11;3.78;;;2.33;;
20441;SDS011;10380;52.102;20.614;2023-08-31T11:52:40;4.22;;;2.13;;
20441;SDS011;10380;52.102;20.614;2023-08-31T11:55:12;4.15;;;2.30;;
20441;SDS011;10380;52.102;20.614;2023-08-31T11:57:47;4.43;;;2.35;;
20441;SDS011;10380;52.102;20.614;2023-08-31T12:00:21;2.72;;;2.00;;
20441;SDS011;10380;52.102;20.614;2023-08-31T12:02:58;13.85;;;3.13;;
20441;SDS011;10380;52.102;20.614;2023-08-31T12:05:26;3.50;;;2.42;;
20441;SDS011;10380;52.102;20.614;2023-08-31T12:07:54;4.78;;;2.45;;
20441;SDS011;10380;52.102;20.614;2023-08-31T12:10:26;7.40;;;2.40;;
20441;SDS011;10380;52.102;20.614;2023-08-31T12:12:54;4.75;;;2.00;;
20441;SDS011;10380;52.102;20.614;2023-08-31T12:15:38;4.40;;;2.20;;
20441;SDS011;10380;52.102;20.614;2023-08-31T12:18:09;3.20;;;2.13;;
20441;SDS011;10380;52.102;20.614;2023-08-31T12:20:44;2.03;;;1.77;;
20441;SDS011;10380;52.102;20.614;2023-08-31T12:23:12;3.10;;;2.05;;
20441;SDS011;10380;52.102;20.614;2023-08-31T12:25:45;3.00;;;2.28;;
20441;SDS011;10380;52.102;20.614;2023-08-31T12:28:16;4.30;;;2.13;;
20441;SDS011;10380;52.102;20.614;2023-08-31T12:30:51;2.15;;;1.77;;
20441;SDS011;10380;52.102;20.614;2023-08-31T12:33:20;3.80;;;2.53;;
20441;SDS011;10380;52.102;20.614;2023-08-31T12:35:48;4.85;;;2.00;;
20441;SDS011;10380;52.102;20.614;2023-08-31T12:38:16;2.33;;;1.85;;
20441;SDS011;10380;52.102;20.614;2023-08-31T12:40:44;5.05;;;2.17;;
20441;SDS011;10380;52.102;20.614;2023-08-31T12:43:11;5.40;;;2.15;;
20441;SDS011;10380;52.102;20.614;2023-08-31T12:45:39;2.13;;;1.65;;
20441;SDS011;10380;52.102;20.614;2023-08-31T12:48:06;7.75;;;2.33;;
20441;SDS011;10380;52.102;20.614;2023-08-31T12:50:34;4.82;;;2.15;;
20441;SDS011;10380;52.102;20.614;2023-08-31T12:53:01;8.57;;;1.98;;
20441;SDS011;10380;52.102;20.614;2023-08-31T12:55:29;3.95;;;2.25;;
20441;SDS011;10380;52.102;20.614;2023-08-31T12:57:57;4.72;;;1.95;;
20441;SDS011;10380;52.102;20.614;2023-08-31T13:00:24;3.63;;;1.95;;
20441;SDS011;10380;52.102;20.614;2023-08-31T13:02:51;4.85;;;1.50;;
20441;SDS011;10380;52.102;20.614;2023-08-31T13:05:19;5.72;;;2.33;;
20441;SDS011;10380;52.102;20.614;2023-08-31T13:07:47;3.25;;;1.67;;
20441;SDS011;10380;52.102;20.614;2023-08-31T13:10:14;3.67;;;1.80;;
20441;SDS011;10380;52.102;20.614;2023-08-31T13:12:41;1.90;;;1.67;;
20441;SDS011;10380;52.102;20.614;2023-08-31T13:15:09;3.00;;;1.58;;
20441;SDS011;10380;52.102;20.614;2023-08-31T13:17:36;13.10;;;2.33;;
20441;SDS011;10380;52.102;20.614;2023-08-31T13:20:04;3.55;;;1.45;;
20441;SDS011;10380;52.102;20.614;2023-08-31T13:22:32;2.47;;;1.70;;
20441;SDS011;10380;52.102;20.614;2023-08-31T13:24:59;5.57;;;2.63;;
20441;SDS011;10380;52.102;20.614;2023-08-31T13:27:26;2.58;;;2.30;;
20441;SDS011;10380;52.102;20.614;2023-08-31T13:29:56;6.50;;;2.58;;
20441;SDS011;10380;52.102;20.614;2023-08-31T13:32:23;4.53;;;3.05;;
20441;SDS011;10380;52.102;20.614;2023-08-31T13:34:50;4.30;;;2.30;;
20441;SDS011;10380;52.102;20.614;2023-08-31T13:37:18;5.13;;;1.95;;
20441;SDS011;10380;52.102;20.614;2023-08-31T13:39:45;11.52;;;2.67;;
20441;SDS011;10380;52.102;20.614;2023-08-31T13:42:13;3.80;;;2.20;;
20441;SDS011;10380;52.102;20.614;2023-08-31T13:44:40;9.45;;;2.30;;
20441;SDS011;10380;52.102;20.614;2023-08-31T13:47:08;4.68;;;1.75;;
20441;SDS011;10380;52.102;20.614;2023-08-31T13:49:35;3.25;;;1.80;;
20441;SDS011;10380;52.102;20.614;2023-08-31T13:52:03;4.47;;;2.30;;
20441;SDS011;10380;52.102;20.614;2023-08-31T13:54:33;5.15;;;3.08;;
20441;SDS011;10380;52.102;20.614;2023-08-31T13:57:00;4.10;;;2.50;;
20441;SDS011;10380;52.102;20.614;2023-08-31T13:59:28;2.63;;;1.98;;
20441;SDS011;10380;52.102;20.614;2023-08-31T14:01:55;5.05;;;3.10;;
20441;SDS011;10380;52.102;20.614;2023-08-31T14:04:23;5.18;;;2.72;;
20441;SDS011;10380;52.102;20.614;2023-08-31T14:06:50;5.10;;;2.95;;
20441;SDS011;10380;52.102;20.614;2023-08-31T14:09:18;5.28;;;3.47;;
20441;SDS011;10380;52.102;20.614;2023-08-31T14:11:46;3.75;;;3.35;;
20441;SDS011;10380;52.102;20.614;2023-08-31T14:14:13;5.78;;;3.08;;
20441;SDS011;10380;52.102;20.614;2023-08-31T14:16:41;5.63;;;4.00;;
20441;SDS011;10380;52.102;20.614;2023-08-31T14:19:08;4.72;;;4.13;;
20441;SDS011;10380;52.102;20.614;2023-08-31T14:21:35;8.25;;;5.05;;
20441;SDS011;10380;52.102;20.614;2023-08-31T14:24:03;6.32;;;4.72;;
20441;SDS011;10380;52.102;20.614;2023-08-31T14:26:30;8.38;;;4.90;;
20441;SDS011;10380;52.102;20.614;2023-08-31T14:28:58;6.82;;;5.40;;
20441;SDS011;10380;52.102;20.614;2023-08-31T14:31:25;5.78;;;5.28;;
20441;SDS011;10380;52.102;20.614;2023-08-31T14:33:53;7.47;;;5.82;;
20441;SDS011;10380;52.102;20.614;2023-08-31T14:36:22;11.70;;;6.53;;
20441;SDS011;10380;52.102;20.614;2023-08-31T14:38:49;9.00;;;5.93;;
20441;SDS011;10380;52.102;20.614;2023-08-31T14:41:16;10.23;;;6.32;;
20441;SDS011;10380;52.102;20.614;2023-08-31T14:43:44;8.60;;;6.03;;
20441;SDS011;10380;52.102;20.614;2023-08-31T14:46:12;6.80;;;5.78;;
20441;SDS011;10380;52.102;20.614;2023-08-31T14:48:39;12.30;;;7.00;;
20441;SDS011;10380;52.102;20.614;2023-08-31T14:51:07;7.53;;;6.03;;
20441;SDS011;10380;52.102;20.614;2023-08-31T14:53:35;6.65;;;6.03;;
20441;SDS011;10380;52.102;20.614;2023-08-31T14:56:06;7.13;;;5.50;;
20441;SDS011;10380;52.102;20.614;2023-08-31T14:58:50;9.32;;;5.53;;
20441;SDS011;10380;52.102;20.614;2023-08-31T15:01:18;6.30;;;5.68;;
20441;SDS011;10380;52.102;20.614;2023-08-31T15:03:45;7.20;;;5.97;;
20441;SDS011;10380;52.102;20.614;2023-08-31T15:06:13;9.20;;;5.63;;
20441;SDS011;10380;52.102;20.614;2023-08-31T15:08:41;7.53;;;6.03;;
20441;SDS011;10380;52.102;20.614;2023-08-31T15:11:08;7.22;;;6.15;;
20441;SDS011;10380;52.102;20.614;2023-08-31T15:13:39;6.80;;;5.15;;
20441;SDS011;10380;52.102;20.614;2023-08-31T15:16:06;5.75;;;5.10;;
20441;SDS011;10380;52.102;20.614;2023-08-31T15:18:34;7.75;;;4.63;;
20441;SDS011;10380;52.102;20.614;2023-08-31T15:21:01;6.72;;;5.00;;